Time;durP1;ratioP1;P1;durP2;ratioP2;P2;SDS_P1;SDS_P2;PMS_P1;PMS_P2;Temp;Humidity;BMP_temperature;BMP_pressure;BME280_temperature;BME280_humidity;BME280_pressure;Samples;Min_cycle;Max_cycle;Signal;HPM_P1;HPM_P2
2022/07/31 00:00:43;;;;;;;;;2.00;0.00;;;;;23.17;100.00;101489.25;5005130;28;45476;-79
2022/07/31 00:03:09;;;;;;;;;3.50;2.00;;;;;23.18;100.00;101497.38;5008739;28;45911;-76
2022/07/31 00:05:34;;;;;;;;;2.25;2.25;;;;;23.15;100.00;101502.69;5013494;28;45811;-79
2022/07/31 00:08:01;;;;;;;;;1.33;0.67;;;;;23.02;100.00;101481.63;5012366;28;47015;-77
2022/07/31 00:10:27;;;;;;;;;1.25;1.00;;;;;23.05;100.00;101498.72;5013814;28;45701;-78
2022/07/31 00:12:53;;;;;;;;;2.00;2.00;;;;;22.98;100.00;101497.25;5007685;28;45389;-78
2022/07/31 00:15:19;;;;;;;;;2.67;2.67;;;;;22.93;100.00;101489.69;5014269;28;45889;-78
2022/07/31 00:17:45;;;;;;;;;2.00;2.00;;;;;22.92;100.00;101493.63;5012757;28;47181;-78
2022/07/31 00:20:14;;;;;;;;;6.00;6.00;;;;;22.92;100.00;101493.63;5014456;28;45910;-78
2022/07/31 00:22:41;;;;;;;;;4.00;4.00;;;;;22.84;100.00;101485.75;5015102;28;45548;-77
2022/07/31 00:25:07;;;;;;;;;3.00;2.00;;;;;22.85;100.00;101490.25;5015951;28;45813;-78
2022/07/31 00:27:33;;;;;;;;;3.00;2.67;;;;;22.85;100.00;101493.88;5014155;28;46960;-76
2022/07/31 00:29:59;;;;;;;;;7.00;4.00;;;;;22.75;100.00;101479.84;5014122;28;45405;-76
2022/07/31 00:32:25;;;;;;;;;4.33;3.00;;;;;22.72;100.00;101478.44;5014433;28;45705;-79
2022/07/31 00:34:52;;;;;;;;;1.67;1.67;;;;;22.79;100.00;101497.75;5013376;28;45635;-78
2022/07/31 00:37:18;;;;;;;;;2.00;2.00;;;;;22.62;100.00;101475.59;5014230;28;46160;-77
2022/07/31 00:39:48;;;;;;;;;3.67;2.67;;;;;22.76;100.00;101492.72;5021357;28;45510;-79
2022/07/31 00:42:26;;;;;;;;;2.00;2.00;;;;;22.72;100.00;101503.63;5034797;28;45525;-78
2022/07/31 00:45:14;;;;;;;;;12.00;8.00;;;;;22.70;100.00;101497.44;5034334;28;45849;-77
2022/07/31 00:47:46;;;;;;;;;3.00;2.00;;;;;22.69;100.00;101498.53;5017992;28;45954;-77
2022/07/31 00:50:49;;;;;;;;;3.67;3.67;;;;;22.36;100.00;101455.88;5014084;28;45529;-78
2022/07/31 00:53:15;;;;;;;;;11.33;7.00;;;;;22.64;100.00;101498.53;5003677;28;45935;-79
2022/07/31 00:55:51;;;;;;;;;5.67;5.67;;;;;22.45;100.00;101483.34;5022117;28;45507;-80
2022/07/31 00:58:18;;;;;;;;;5.67;3.33;;;;;22.58;100.00;101499.63;5011020;28;45533;-77
2022/07/31 01:00:43;;;;;;;;;3.67;2.33;;;;;22.34;100.00;101469.28;5023341;28;45626;-77
2022/07/31 01:03:13;;;;;;;;;4.00;3.00;;;;;22.52;100.00;101495.94;5020042;28;45438;-76
2022/07/31 01:05:42;;;;;;;;;1.67;1.67;;;;;22.50;100.00;101502.91;5017994;28;45777;-76
2022/07/31 01:08:08;;;;;;;;;2.00;1.00;;;;;22.37;100.00;101482.72;5015905;28;47030;-79
2022/07/31 01:10:45;;;;;;;;;5.33;3.00;;;;;22.41;100.00;101504.53;5019073;28;45536;-78
2022/07/31 01:13:59;;;;;;;;;1.67;1.00;;;;;22.41;100.00;101511.00;5014870;28;45384;-78
2022/07/31 01:16:29;;;;;;;;;0.67;0.67;;;;;22.21;100.00;101478.13;5012463;28;45450;-76
2022/07/31 01:18:59;;;;;;;;;0.00;0.00;;;;;22.30;100.00;101495.22;5010444;28;45756;-77
2022/07/31 01:21:32;;;;;;;;;4.00;2.00;;;;;22.22;100.00;101488.19;5017265;28;45503;-78
2022/07/31 01:24:43;;;;;;;;;10.00;8.67;;;;;22.21;100.00;101492.09;5017469;28;45509;-76
2022/07/31 01:27:45;;;;;;;;;9.00;8.00;;;;;22.29;100.00;101505.56;5012484;28;45359;-76
2022/07/31 01:30:11;;;;;;;;;12.00;10.33;;;;;22.27;100.00;101506.94;5012774;28;45757;-78
2022/07/31 01:32:40;;;;;;;;;14.67;13.33;;;;;22.17;100.00;101493.75;5011395;28;45810;-78
2022/07/31 01:35:22;;;;;;;;;8.33;8.33;;;;;22.24;100.00;101507.50;5012282;28;45397;-78
2022/07/31 01:38:02;;;;;;;;;7.33;7.33;;;;;22.21;100.00;101512.47;5013111;28;45708;-76
2022/07/31 01:40:35;;;;;;;;;7.33;7.33;;;;;22.20;100.00;101507.16;5012212;28;45755;-78
2022/07/31 01:43:21;;;;;;;;;7.33;6.33;;;;;22.19;100.00;101505.50;5004688;28;45974;-78
2022/07/31 01:45:52;;;;;;;;;4.33;4.33;;;;;22.09;100.00;101497.03;5011656;28;45443;-77
2022/07/31 01:48:18;;;;;;;;;11.00;9.67;;;;;22.15;100.00;101507.97;5013165;28;45649;-77
2022/07/31 01:50:47;;;;;;;;;7.67;6.67;;;;;22.14;100.00;101516.63;5026794;28;46277;-77
2022/07/31 01:53:16;;;;;;;;;12.67;11.33;;;;;22.11;100.00;101506.00;5028466;28;45836;-77
2022/07/31 01:55:44;;;;;;;;;13.00;8.00;;;;;22.07;100.00;101513.25;5014372;28;45370;-77
2022/07/31 01:58:11;;;;;;;;;14.00;8.67;;;;;22.03;100.00;101516.53;4992288;28;45716;-75
2022/07/31 02:00:37;;;;;;;;;15.00;13.00;;;;;21.99;100.00;101509.84;5004933;28;45986;-78
2022/07/31 02:03:06;;;;;;;;;23.67;23.33;;;;;21.99;100.00;101517.34;5011384;28;45650;-75
2022/07/31 02:05:34;;;;;;;;;11.33;10.00;;;;;21.97;100.00;101517.63;5011240;28;45783;-75
2022/07/31 02:08:01;;;;;;;;;22.67;15.67;;;;;21.89;100.00;101520.91;5011178;28;45441;-75
2022/07/31 02:10:28;;;;;;;;;8.00;4.67;;;;;21.93;100.00;101533.25;5011855;28;47543;-75
2022/07/31 02:12:54;;;;;;;;;7.00;6.00;;;;;21.90;100.00;101517.03;5010970;28;45896;-76
2022/07/31 02:15:23;;;;;;;;;5.67;4.33;;;;;21.87;100.00;101531.50;5013201;28;45666;-75
2022/07/31 02:17:50;;;;;;;;;4.33;4.00;;;;;21.75;100.00;101508.50;5012155;28;45285;-75
2022/07/31 02:20:16;;;;;;;;;6.67;5.00;;;;;21.80;100.00;101528.09;5011914;28;45364;-77
2022/07/31 02:22:42;;;;;;;;;4.33;4.33;;;;;21.79;100.00;101520.81;5029852;28;45500;-75
2022/07/31 02:25:08;;;;;;;;;3.33;3.33;;;;;21.75;100.00;101517.72;5022842;28;45843;-75
2022/07/31 02:27:38;;;;;;;;;2.00;2.00;;;;;21.70;100.00;101523.25;5026414;28;45712;-75
2022/07/31 02:30:04;;;;;;;;;4.33;4.33;;;;;21.71;100.00;101524.09;5014321;28;46284;-76
2022/07/31 02:32:32;;;;;;;;;3.67;3.67;;;;;21.72;100.00;101531.34;5005505;28;45675;-75
2022/07/31 02:35:00;;;;;;;;;5.00;2.00;;;;;21.69;100.00;101529.94;5012280;28;45495;-77
2022/07/31 02:37:28;;;;;;;;;2.00;1.00;;;;;21.64;100.00;101525.16;5011983;28;45712;-75
2022/07/31 02:39:54;;;;;;;;;6.00;4.33;;;;;21.62;100.00;101513.41;5010203;28;46392;-75
2022/07/31 02:42:21;;;;;;;;;4.00;4.00;;;;;21.61;100.00;101517.31;5006153;28;45440;-76
2022/07/31 02:44:51;;;;;;;;;4.00;4.00;;;;;21.57;100.00;101512.50;5003920;28;45342;-76
2022/07/31 02:47:17;;;;;;;;;2.00;2.00;;;;;21.52;100.00;101504.94;4999780;28;45657;-75
2022/07/31 02:49:46;;;;;;;;;2.67;2.33;;;;;21.55;100.00;101515.56;5008129;28;46064;-76
2022/07/31 02:52:12;;;;;;;;;4.00;4.00;;;;;21.55;100.00;101521.16;5011758;28;45363;-76
2022/07/31 02:54:39;;;;;;;;;1.00;1.00;;;;;21.54;100.00;101522.25;5012176;28;45541;-76
2022/07/31 02:57:05;;;;;;;;;3.00;3.00;;;;;21.53;100.00;101515.00;5021899;28;45656;-74
2022/07/31 02:59:35;;;;;;;;;2.00;2.00;;;;;21.56;100.00;101510.81;5016714;28;45442;-76
2022/07/31 03:02:02;;;;;;;;;2.67;0.67;;;;;21.56;100.00;101503.31;5011790;28;45477;-76
2022/07/31 03:04:28;;;;;;;;;2.00;1.00;;;;;21.59;100.00;101505.56;5011509;28;45918;-75
2022/07/31 03:06:56;;;;;;;;;3.33;3.33;;;;;21.62;100.00;101513.41;5016378;28;45557;-75
2022/07/31 03:09:22;;;;;;;;;1.67;1.67;;;;;21.66;100.00;101510.91;5011847;28;46166;-76
2022/07/31 03:11:51;;;;;;;;;2.00;1.00;;;;;21.69;100.00;101508.47;5010254;28;45759;-77
2022/07/31 03:14:25;;;;;;;;;2.00;2.00;;;;;21.76;100.00;101504.59;4999992;28;45776;-77
2022/07/31 03:19:41;;;;;;;;;3.00;3.00;;;;;21.81;100.00;101480.38;4991481;28;45739;-77
2022/07/31 03:22:08;;;;;;;;;2.67;2.67;;;;;21.94;100.00;101489.38;5010244;28;45495;-76
2022/07/31 03:24:34;;;;;;;;;5.33;5.00;;;;;21.98;100.00;101490.53;5002786;28;45161;-75
2022/07/31 03:26:59;;;;;;;;;5.67;5.67;;;;;21.96;100.00;101476.84;5003040;28;47364;-75
2022/07/31 03:29:25;;;;;;;;;7.00;6.33;;;;;22.14;100.00;101495.13;5010982;28;45423;-73
2022/07/31 03:31:51;;;;;;;;;7.33;6.33;;;;;22.19;100.00;101478.41;5009957;28;45714;-75
2022/07/31 03:34:18;;;;;;;;;7.33;6.33;;;;;22.22;100.00;101479.81;5003997;28;45769;-74
2022/07/31 03:36:44;;;;;;;;;7.00;7.00;;;;;22.28;100.00;101473.16;5019165;28;45471;-75
2022/07/31 03:39:10;;;;;;;;;8.67;8.67;;;;;22.29;100.00;101468.38;5002236;28;47793;-75
2022/07/31 03:41:37;;;;;;;;;4.33;4.33;;;;;22.34;100.00;101477.69;5015643;28;45471;-75
2022/07/31 03:44:03;;;;;;;;;7.67;7.67;;;;;22.37;100.00;101477.13;5014594;28;45548;-75
2022/07/31 03:46:29;;;;;;;;;6.33;6.33;;;;;22.38;100.00;101478.84;5012489;28;45379;-76
2022/07/31 03:48:55;;;;;;;;;7.33;6.67;;;;;22.42;100.00;101483.88;5016049;28;45421;-75
2022/07/31 03:51:22;;;;;;;;;9.33;9.00;;;;;22.48;100.00;101482.78;5018821;28;45618;-76
2022/07/31 03:53:50;;;;;;;;;11.67;9.33;;;;;22.51;100.00;101482.25;5015978;28;45745;-75
2022/07/31 03:56:18;;;;;;;;;6.00;6.00;;;;;22.52;100.00;101472.75;5016674;28;45495;-76
2022/07/31 03:58:44;;;;;;;;;10.33;6.00;;;;;22.53;100.00;101466.88;5012411;28;46378;-75
2022/07/31 04:01:10;;;;;;;;;8.67;5.33;;;;;22.57;100.00;101464.38;5007864;28;45372;-75
2022/07/31 04:03:37;;;;;;;;;9.67;8.67;;;;;22.54;100.00;101456.53;5012533;28;45899;-74
2022/07/31 04:06:03;;;;;;;;;8.67;6.00;;;;;22.58;100.00;101465.25;5007161;28;45757;-75
2022/07/31 04:08:29;;;;;;;;;6.00;6.00;;;;;22.61;100.00;101451.53;5008632;28;46104;-75
2022/07/31 04:10:55;;;;;;;;;6.67;6.33;;;;;22.62;100.00;101449.59;4996693;28;45495;-74
2022/07/31 04:13:20;;;;;;;;;8.67;5.33;;;;;22.66;100.00;101454.34;5008772;28;45419;-75
2022/07/31 04:15:49;;;;;;;;;9.00;6.00;;;;;22.69;100.00;101467.78;5005858;28;45806;-75
2022/07/31 04:18:15;;;;;;;;;6.67;6.67;;;;;22.71;100.00;101465.56;5013283;28;45625;-76
2022/07/31 04:20:40;;;;;;;;;6.33;6.33;;;;;22.74;100.00;101465.03;5011219;28;45409;-76
2022/07/31 04:23:06;;;;;;;;;9.00;5.67;;;;;22.68;100.00;101454.94;5011917;28;45739;-75
2022/07/31 04:25:32;;;;;;;;;5.33;4.33;;;;;22.74;100.00;101462.22;5012473;28;45477;-77
2022/07/31 04:28:00;;;;;;;;;6.67;4.33;;;;;22.83;100.00;101478.47;5017167;28;46958;-75
2022/07/31 04:30:25;;;;;;;;;3.67;3.67;;;;;22.80;100.00;101474.28;5027413;28;45868;-76
2022/07/31 04:32:51;;;;;;;;;7.00;7.00;;;;;22.80;100.00;101471.50;5013157;28;45481;-76
2022/07/31 04:35:16;;;;;;;;;6.00;6.00;;;;;22.81;100.00;101475.13;5011907;28;45812;-76
2022/07/31 04:37:42;;;;;;;;;7.67;6.33;;;;;22.85;100.00;101470.66;5009160;28;45758;-75
2022/07/31 04:40:10;;;;;;;;;7.00;6.00;;;;;22.83;100.00;101467.28;5013749;28;45841;-77
2022/07/31 04:42:36;;;;;;;;;4.00;3.67;;;;;22.88;100.00;101478.50;5011255;28;45535;-76
2022/07/31 04:45:02;;;;;;;;;3.00;3.00;;;;;22.86;100.00;101472.31;5015774;28;45447;-75
2022/07/31 04:47:28;;;;;;;;;3.00;3.00;;;;;22.84;100.00;101468.97;5011956;28;45461;-76
2022/07/31 04:49:54;;;;;;;;;4.75;2.00;;;;;22.89;100.00;101478.22;5011347;28;45843;-76
2022/07/31 04:52:23;;;;;;;;;4.00;3.00;;;;;22.91;100.00;101476.00;5017952;28;45762;-75
2022/07/31 04:54:51;;;;;;;;;2.33;2.00;;;;;22.95;100.00;101476.28;5008626;28;45971;-76
2022/07/31 04:57:19;;;;;;;;;4.00;4.00;;;;;22.92;100.00;101460.91;5012440;28;45670;-75
2022/07/31 04:59:44;;;;;;;;;5.33;4.00;;;;;23.04;100.00;101471.84;5010261;28;45584;-77
2022/07/31 05:02:10;;;;;;;;;4.33;3.33;;;;;23.14;100.00;101478.59;5014926;28;46125;-77
2022/07/31 05:04:36;;;;;;;;;4.67;3.00;;;;;23.14;100.00;101485.03;5008508;28;45563;-78
2022/07/31 05:07:02;;;;;;;;;3.00;3.00;;;;;23.10;100.00;101472.75;5013055;28;47406;-78
2022/07/31 05:09:32;;;;;;;;;3.00;3.00;;;;;23.12;100.00;101475.25;5016639;28;45503;-76
2022/07/31 05:11:59;;;;;;;;;2.50;2.50;;;;;23.11;100.00;101476.38;5007454;28;45542;-76
2022/07/31 05:14:27;;;;;;;;;3.00;3.00;;;;;23.10;100.00;101483.94;5008755;28;45831;-77
2022/07/31 05:16:53;;;;;;;;;3.25;3.25;;;;;23.14;100.00;101484.22;5008201;28;45408;-77
2022/07/31 05:19:18;;;;;;;;;3.00;3.00;;;;;23.13;100.00;101488.97;5011028;28;45376;-75
2022/07/31 05:21:48;;;;;;;;;1.00;1.00;;;;;23.11;100.00;101484.75;5008343;28;45431;-75
2022/07/31 05:24:14;;;;;;;;;3.00;3.00;;;;;23.12;100.00;101484.47;5008382;28;45557;-77
2022/07/31 05:26:41;;;;;;;;;3.00;3.00;;;;;23.15;100.00;101483.94;5009526;28;46152;-76
2022/07/31 05:29:07;;;;;;;;;1.75;1.75;;;;;23.13;100.00;101474.97;5021687;28;45814;-77
2022/07/31 05:31:33;;;;;;;;;3.67;3.00;;;;;23.13;100.00;101482.50;5014209;28;45345;-76
2022/07/31 05:33:59;;;;;;;;;3.25;3.00;;;;;23.11;100.00;101471.59;5020487;28;45555;-77
2022/07/31 05:36:26;;;;;;;;;4.25;4.25;;;;;23.17;100.00;101472.47;4987578;28;46611;-78
2022/07/31 05:38:51;;;;;;;;;3.00;3.00;;;;;23.18;100.00;101471.34;5013842;28;45732;-77
2022/07/31 05:41:17;;;;;;;;;3.50;2.50;;;;;23.15;100.00;101460.72;5009542;28;45570;-77
2022/07/31 05:43:50;;;;;;;;;3.00;3.00;;;;;23.27;100.00;101472.50;5014357;28;46252;-77
2022/07/31 05:46:16;;;;;;;;;4.75;3.50;;;;;23.29;100.00;101477.81;5017862;28;45459;-78
2022/07/31 05:48:52;;;;;;;;;3.67;3.67;;;;;23.29;100.00;101481.44;5013122;28;45501;-77
2022/07/31 05:51:22;;;;;;;;;3.00;3.00;;;;;23.25;100.00;101481.16;5010439;28;45832;-75
2022/07/31 05:53:49;;;;;;;;;3.67;3.67;;;;;23.28;100.00;101490.97;5014101;28;45675;-75
2022/07/31 05:56:15;;;;;;;;;5.00;4.00;;;;;23.25;100.00;101477.53;5025019;28;45503;-76
2022/07/31 05:58:40;;;;;;;;;4.25;4.00;;;;;23.42;100.00;101489.28;5019586;28;45636;-77
2022/07/31 06:01:08;;;;;;;;;2.50;2.50;;;;;23.52;100.00;101482.03;5010458;28;45576;-76
2022/07/31 06:03:35;;;;;;;;;3.00;3.00;;;;;23.61;100.00;101481.22;5011812;28;45878;-75
2022/07/31 06:06:02;;;;;;;;;3.00;3.00;;;;;23.71;100.00;101471.13;5012789;28;45489;-75
2022/07/31 06:08:29;;;;;;;;;4.00;4.00;;;;;23.71;100.00;101455.19;5011566;28;45379;-76
2022/07/31 06:10:55;;;;;;;;;5.00;4.00;;;;;23.89;100.00;101467.81;5011382;28;45815;-76
2022/07/31 06:13:29;;;;;;;;;3.00;3.00;;;;;23.96;100.00;101464.72;5013075;28;45941;-77
2022/07/31 06:15:55;;;;;;;;;3.50;3.50;;;;;24.18;100.00;101470.00;5009943;28;46019;-75
2022/07/31 06:18:21;;;;;;;;;6.00;4.75;;;;;24.26;100.00;101465.78;5024963;28;45317;-75
2022/07/31 06:20:48;;;;;;;;;3.33;3.33;;;;;24.33;100.00;101471.94;5027887;28;45398;-75
2022/07/31 06:23:19;;;;;;;;;2.75;2.75;;;;;24.32;100.00;101448.66;5026689;28;45697;-76
2022/07/31 06:25:44;;;;;;;;;4.00;4.00;;;;;24.56;100.00;101467.63;5022381;28;45738;-76
2022/07/31 06:28:10;;;;;;;;;4.00;3.67;;;;;24.70;100.00;101465.13;5018125;28;45440;-76
2022/07/31 06:30:36;;;;;;;;;3.67;3.67;;;;;24.93;100.00;101463.59;5014875;28;45428;-74
2022/07/31 06:33:02;;;;;;;;;4.00;3.00;;;;;25.03;100.00;101443.06;5020936;28;46628;-76
2022/07/31 06:35:28;;;;;;;;;5.33;3.00;;;;;25.57;100.00;101460.13;5029048;28;46420;-74
2022/07/31 06:37:53;;;;;;;;;4.00;3.00;;;;;26.15;100.00;101454.53;5017474;28;46144;-77
2022/07/31 06:40:19;;;;;;;;;5.00;4.00;;;;;26.53;100.00;101460.31;5023758;28;45499;-75
2022/07/31 06:42:45;;;;;;;;;3.50;2.25;;;;;26.88;100.00;101469.47;5023577;28;45482;-75
2022/07/31 06:45:12;;;;;;;;;3.25;3.25;;;;;27.23;100.00;101456.03;5017623;28;45828;-76
2022/07/31 06:47:38;;;;;;;;;2.25;2.25;;;;;27.29;100.00;101468.03;5014640;28;45301;-75
2022/07/31 06:50:05;;;;;;;;;3.00;3.00;;;;;27.23;100.00;101472.09;5015313;28;45493;-77
2022/07/31 06:52:40;;;;;;;;;3.50;3.50;;;;;27.17;100.00;101474.16;5008560;28;45562;-79
2022/07/31 06:55:07;;;;;;;;;3.75;3.75;;;;;27.07;100.00;101480.75;5012896;28;45437;-77
2022/07/31 06:57:33;;;;;;;;;5.25;2.25;;;;;27.04;100.00;101475.75;5006375;28;45604;-75
2022/07/31 06:59:59;;;;;;;;;3.00;3.00;;;;;26.91;100.00;101482.94;5007812;28;45503;-76
2022/07/31 07:02:24;;;;;;;;;4.00;4.00;;;;;26.70;100.00;101465.47;5002183;28;45502;-75
2022/07/31 07:04:50;;;;;;;;;5.00;5.00;;;;;26.69;100.00;101474.22;5014494;28;45952;-76
2022/07/31 07:07:17;;;;;;;;;3.00;3.00;;;;;26.58;100.00;101459.41;5012512;28;45514;-76
2022/07/31 07:09:43;;;;;;;;;3.75;3.75;;;;;26.47;100.00;101450.28;5015321;28;45724;-75
2022/07/31 07:12:09;;;;;;;;;2.75;2.75;;;;;26.58;100.00;101465.88;5019542;28;46046;-78
2022/07/31 07:14:34;;;;;;;;;3.25;3.25;;;;;26.56;100.00;101470.16;5013445;28;45410;-76
2022/07/31 07:17:07;;;;;;;;;3.50;3.50;;;;;26.51;100.00;101462.59;5016646;28;45509;-76
2022/07/31 07:19:33;;;;;;;;;5.00;3.67;;;;;26.61;100.00;101479.34;5014207;28;45799;-74
2022/07/31 07:21:59;;;;;;;;;4.50;4.50;;;;;26.60;100.00;101480.50;5013811;28;45585;-75
2022/07/31 07:24:24;;;;;;;;;4.25;4.25;;;;;26.65;100.00;101490.00;5013859;28;46326;-76
2022/07/31 07:26:50;;;;;;;;;4.00;4.00;;;;;26.70;100.00;101487.16;5013565;28;45671;-75
2022/07/31 07:29:15;;;;;;;;;3.25;3.25;;;;;26.96;100.00;101493.28;5012590;28;45564;-76
2022/07/31 07:31:41;;;;;;;;;5.00;3.75;;;;;27.14;100.00;101474.75;5015650;28;45542;-76
2022/07/31 07:34:08;;;;;;;;;3.00;3.00;;;;;27.41;100.00;101491.00;5013816;28;45717;-77
2022/07/31 07:36:34;;;;;;;;;6.25;5.25;;;;;27.45;100.00;101488.41;5005500;28;45844;-75
2022/07/31 07:39:03;;;;;;;;;4.75;4.75;;;;;27.37;100.00;101477.84;5017612;28;45500;-76
2022/07/31 07:41:29;;;;;;;;;3.00;3.00;;;;;27.37;100.00;101470.22;5008962;28;45664;-76
2022/07/31 07:43:54;;;;;;;;;5.67;4.33;;;;;27.39;100.00;101486.81;5007414;28;46870;-76
2022/07/31 07:46:21;;;;;;;;;4.25;4.25;;;;;27.34;100.00;101489.72;5013259;28;45479;-76
2022/07/31 07:48:49;;;;;;;;;3.75;3.75;;;;;28.17;100.00;101490.03;5005749;28;45961;-78
2022/07/31 07:51:15;;;;;;;;;6.00;6.00;;;;;29.01;100.00;101491.75;5012089;28;45801;-76
2022/07/31 07:53:41;;;;;;;;;4.75;4.50;;;;;29.66;97.53;101489.72;5016984;28;45590;-76
2022/07/31 07:56:06;;;;;;;;;6.50;3.50;;;;;29.94;92.42;101489.59;5011441;28;45541;-77
2022/07/31 07:58:32;;;;;;;;;4.50;4.50;;;;;29.85;91.35;101486.72;5012345;28;45753;-75
2022/07/31 08:00:58;;;;;;;;;3.50;3.50;;;;;29.81;91.67;101487.66;5017601;28;45548;-76
2022/07/31 08:03:25;;;;;;;;;4.00;4.00;;;;;29.75;91.43;101495.44;5013632;28;45513;-76
2022/07/31 08:05:56;;;;;;;;;4.75;4.75;;;;;29.44;92.69;101479.22;5014229;28;45405;-76
2022/07/31 08:08:23;;;;;;;;;3.00;3.00;;;;;29.33;93.95;101491.94;5010320;28;45750;-75
2022/07/31 08:10:49;;;;;;;;;4.00;3.75;;;;;29.30;94.27;101492.53;5007849;28;45516;-76
2022/07/31 08:13:15;;;;;;;;;5.75;5.75;;;;;29.28;94.56;101484.38;5010282;28;46216;-75
2022/07/31 08:15:44;;;;;;;;;11.00;9.00;;;;;29.23;94.32;101482.53;5022677;28;45849;-74
2022/07/31 08:18:11;;;;;;;;;18.67;17.33;;;;;29.27;94.12;101484.69;5008052;28;45548;-76
2022/07/31 08:20:39;;;;;;;;;6.25;4.75;;;;;29.34;92.94;101505.75;5008645;28;46773;-75
2022/07/31 08:23:08;;;;;;;;;8.00;6.50;;;;;29.38;91.23;101488.97;5019027;28;45676;-76
2022/07/31 08:25:33;;;;;;;;;5.75;5.75;;;;;29.54;90.50;101492.28;5014111;28;45481;-75
2022/07/31 08:27:59;;;;;;;;;4.25;4.00;;;;;29.74;89.11;101505.06;5009181;28;45696;-76
2022/07/31 08:30:26;;;;;;;;;5.75;4.00;;;;;29.97;86.02;101486.13;5009539;28;45728;-76
2022/07/31 08:33:03;;;;;;;;;6.00;6.00;;;;;30.28;86.73;101494.59;5015138;28;45760;-77
2022/07/31 08:35:31;;;;;;;;;6.75;6.00;;;;;30.37;82.40;101482.50;5016076;28;45432;-76
2022/07/31 08:37:57;;;;;;;;;4.00;4.00;;;;;30.36;82.18;101494.97;5031481;28;45623;-79
2022/07/31 08:40:24;;;;;;;;;6.00;4.25;;;;;30.47;81.16;101485.06;5015898;28;45623;-77
2022/07/31 08:42:50;;;;;;;;;7.50;5.75;;;;;30.72;79.34;101472.19;5016436;28;47100;-81
2022/07/31 08:45:15;;;;;;;;;2.75;2.75;;;;;31.01;77.75;101487.75;5016300;28;45572;-78
2022/07/31 08:47:47;;;;;;;;;3.00;3.00;;;;;31.08;77.41;101473.94;5017745;28;45391;-79
2022/07/31 08:50:30;;;;;;;;;3.50;3.50;;;;;31.53;74.66;101481.31;5022792;28;46040;-77
2022/07/31 08:53:01;;;;;;;;;7.25;5.00;;;;;31.32;73.16;101445.13;5017575;28;46236;-77
2022/07/31 08:55:45;;;;;;;;;14.00;13.67;;;;;31.57;72.07;101492.84;5030578;28;45345;-76
2022/07/31 08:58:11;;;;;;;;;13.00;11.67;;;;;31.55;71.96;101490.34;5019631;28;46412;-74
2022/07/31 09:00:49;;;;;;;;;6.00;6.00;;;;;31.42;70.05;101458.09;5026549;28;45431;-77
2022/07/31 09:03:22;;;;;;;;;8.00;6.75;;;;;31.49;67.61;101449.94;5011800;28;45451;-77
2022/07/31 09:06:11;;;;;;;;;7.00;5.67;;;;;31.68;65.83;101482.81;5022900;28;45862;-75
2022/07/31 09:08:37;;;;;;;;;6.00;6.00;;;;;31.79;65.51;101438.75;5006137;28;45374;-77
2022/07/31 09:11:12;;;;;;;;;6.75;5.00;;;;;33.44;58.93;101435.38;5013741;28;45934;-76
2022/07/31 09:13:39;;;;;;;;;6.75;4.50;;;;;34.44;54.07;101451.56;5026596;28;47598;-76
2022/07/31 09:16:05;;;;;;;;;7.00;5.25;;;;;35.22;51.57;101480.13;5021985;28;45882;-74
2022/07/31 09:18:32;;;;;;;;;8.25;7.00;;;;;36.01;47.58;101480.44;4998606;28;45530;-77
2022/07/31 09:20:59;;;;;;;;;14.33;13.67;;;;;37.48;43.63;101481.56;5005303;28;45606;-78
2022/07/31 09:23:29;;;;;;;;;6.50;5.50;;;;;38.98;39.63;101460.53;5002442;28;45525;-78
2022/07/31 09:26:07;;;;;;;;;12.00;11.00;;;;;40.31;37.06;101475.69;5006695;28;45848;-80
2022/07/31 09:28:38;;;;;;;;;6.00;5.50;;;;;41.79;33.10;101474.56;5011374;28;45533;-80
2022/07/31 09:31:08;;;;;;;;;4.75;4.75;;;;;42.06;31.32;101470.50;5014669;28;45612;-79
2022/07/31 09:33:37;;;;;;;;;5.00;5.00;;;;;42.61;30.41;101469.28;5006355;28;45691;-79
2022/07/31 09:36:17;;;;;;;;;6.75;5.50;;;;;43.32;29.11;101473.25;5010032;28;45842;-80
2022/07/31 09:38:51;;;;;;;;;4.00;4.00;;;;;43.73;27.95;101472.66;5007934;28;45437;-81
2022/07/31 09:41:28;;;;;;;;;5.50;5.50;;;;;43.86;26.95;101452.78;5008726;28;45778;-81
2022/07/31 09:44:04;;;;;;;;;6.00;5.00;;;;;44.04;26.90;101467.91;5012793;28;45701;-80
2022/07/31 09:46:45;;;;;;;;;4.00;4.00;;;;;44.37;26.36;101480.06;5001832;28;45654;-82
2022/07/31 09:49:14;;;;;;;;;3.75;3.75;;;;;44.90;25.13;101474.22;5010797;28;45970;-80
2022/07/31 09:51:50;;;;;;;;;4.33;4.33;;;;;45.17;25.31;101467.72;5010345;28;45662;-79
2022/07/31 09:54:32;;;;;;;;;4.67;4.67;;;;;45.18;25.08;101478.06;5009569;28;45244;-80
2022/07/31 09:57:11;;;;;;;;;6.00;5.00;;;;;44.54;25.17;101484.06;5009036;28;45452;-79
2022/07/31 09:59:37;;;;;;;;;4.50;4.50;;;;;44.00;25.51;101484.50;5003227;28;45575;-77
2022/07/31 10:02:08;;;;;;;;;4.50;4.25;;;;;43.19;26.64;101475.78;5018101;28;45634;-80
2022/07/31 10:04:40;;;;;;;;;5.00;5.00;;;;;42.57;27.55;101480.00;5007488;28;46607;-79
2022/07/31 10:07:17;;;;;;;;;5.50;5.50;;;;;43.37;27.10;101481.47;5014823;28;45687;-77
2022/07/31 10:09:50;;;;;;;;;5.00;5.00;;;;;43.91;26.41;101475.44;5006615;28;46005;-80
2022/07/31 10:12:27;;;;;;;;;6.75;5.75;;;;;44.47;26.15;101460.19;5006914;28;45781;-79
2022/07/31 10:14:54;;;;;;;;;7.00;4.25;;;;;44.78;25.20;101478.47;5007152;28;45560;-79
2022/07/31 10:17:41;;;;;;;;;5.75;5.75;;;;;45.33;24.95;101470.00;5010512;28;45504;-81
2022/07/31 10:20:12;;;;;;;;;4.50;4.50;;;;;46.12;23.66;101472.59;5012057;28;45507;-81
2022/07/31 10:22:45;;;;;;;;;4.00;4.00;;;;;46.38;23.02;101478.81;5006843;28;45557;-81
2022/07/31 10:25:18;;;;;;;;;7.00;7.00;;;;;45.99;23.23;101468.69;5001331;28;45893;-79
2022/07/31 10:27:52;;;;;;;;;6.33;6.33;;;;;44.85;24.26;101468.91;5010499;28;45659;-79
2022/07/31 10:30:20;;;;;;;;;7.33;6.33;;;;;44.16;24.84;101457.09;5000029;28;45973;-80
2022/07/31 10:32:52;;;;;;;;;7.00;7.00;;;;;43.24;25.84;101458.03;5013207;28;46933;-78
2022/07/31 10:35:43;;;;;;;;;6.00;4.25;;;;;43.00;25.93;101456.91;5005123;28;45662;-79
2022/07/31 10:38:22;;;;;;;;;6.33;6.33;;;;;43.36;26.00;101451.78;5009056;28;45526;-79
2022/07/31 10:40:57;;;;;;;;;5.33;5.33;;;;;43.67;25.84;101454.13;5011460;28;46179;-78
2022/07/31 10:43:42;;;;;;;;;3.67;3.67;;;;;43.43;25.98;101450.94;5014101;28;45352;-78
2022/07/31 10:46:36;;;;;;;;;;;;;;;;;;;;;
2022/07/31 10:49:07;;;;;;;;;6.50;5.25;;;;;42.71;26.54;101453.22;5005269;28;73841;-79
2022/07/31 10:51:46;;;;;;;;;5.00;5.00;;;;;42.01;27.29;101439.19;5015686;28;45640;-82
2022/07/31 10:54:13;;;;;;;;;6.25;4.25;;;;;42.13;27.16;101415.72;5021316;28;45605;-79
2022/07/31 10:56:57;;;;;;;;;5.00;5.00;;;;;42.73;26.89;101442.06;5020704;28;45616;-82
2022/07/31 10:59:42;;;;;;;;;;;;;;;;;;;;;
2022/07/31 11:02:11;;;;;;;;;7.75;6.50;;;;;42.98;26.04;101425.53;5009216;28;69047;-81
2022/07/31 11:05:02;;;;;;;;;5.00;5.00;;;;;43.39;26.47;101455.91;5018027;28;45478;-80
2022/07/31 11:07:40;;;;;;;;;5.00;5.00;;;;;43.31;25.66;101420.47;5009050;28;45383;-79
2022/07/31 11:10:14;;;;;;;;;6.33;6.33;;;;;43.47;25.65;101450.94;5011112;28;45660;-80
2022/07/31 11:12:57;;;;;;;;;9.33;9.33;;;;;43.24;26.13;101419.66;5017818;28;45612;-82
2022/07/31 11:15:29;;;;;;;;;4.25;4.25;;;;;42.90;26.23;101380.63;5008108;28;45309;-81
2022/07/31 11:18:33;;;;;;;;;5.75;3.75;;;;;43.15;26.57;101443.22;5017222;28;46823;-81
2022/07/31 11:21:01;;;;;;;;;4.33;4.33;;;;;42.39;26.21;101405.03;5017387;28;45723;-79
2022/07/31 11:24:15;;;;;;;;;6.50;5.25;;;;;41.81;26.99;101388.53;5010827;28;45848;-81
2022/07/31 11:27:33;;;;;;;;;8.33;7.00;;;;;41.22;28.18;101429.06;5000532;28;45747;-79
2022/07/31 11:30:16;;;;;;;;;5.50;5.50;;;;;40.62;29.29;101433.25;5016578;28;45632;-80
2022/07/31 11:33:45;;;;;;;;;8.00;8.00;;;;;39.64;30.24;101408.53;5018782;28;45601;-83
2022/07/31 11:36:13;;;;;;;;;6.25;6.25;;;;;38.72;31.62;101395.44;5012226;28;45548;-80
2022/07/31 11:38:42;;;;;;;;;5.00;5.00;;;;;38.15;31.81;101396.16;5024632;28;45947;-81